sensor_id;sensor_type;location;lat;lon;timestamp;P1;durP1;ratioP1;P2;durP2;ratioP2
7829;SDS011;3960;51.86894000;5.39848000;2022-12-29T00:02:01;4.22;;;1.80;;
7829;SDS011;3960;51.86894000;5.39848000;2022-12-29T00:04:26;3.78;;;2.00;;
7829;SDS011;3960;51.86894000;5.39848000;2022-12-29T00:06:52;2.72;;;2.03;;
7829;SDS011;3960;51.86894000;5.39848000;2022-12-29T00:09:18;2.58;;;2.03;;
7829;SDS011;3960;51.86894000;5.39848000;2022-12-29T00:11:44;3.58;;;2.00;;
7829;SDS011;3960;51.86894000;5.39848000;2022-12-29T00:14:10;2.67;;;1.90;;
7829;SDS011;3960;51.86894000;5.39848000;2022-12-29T00:16:55;3.67;;;1.90;;
7829;SDS011;3960;51.86894000;5.39848000;2022-12-29T00:19:21;3.03;;;1.70;;
7829;SDS011;3960;51.86894000;5.39848000;2022-12-29T00:22:05;2.10;;;1.85;;
7829;SDS011;3960;51.86894000;5.39848000;2022-12-29T00:24:49;2.83;;;2.00;;
7829;SDS011;3960;51.86894000;5.39848000;2022-12-29T00:27:27;2.65;;;2.03;;
7829;SDS011;3960;51.86894000;5.39848000;2022-12-29T00:30:13;2.30;;;1.60;;
7829;SDS011;3960;51.86894000;5.39848000;2022-12-29T00:33:07;4.38;;;1.77;;
7829;SDS011;3960;51.86894000;5.39848000;2022-12-29T00:35:53;1.75;;;1.60;;
7829;SDS011;3960;51.86894000;5.39848000;2022-12-29T00:38:22;6.70;;;1.75;;
7829;SDS011;3960;51.86894000;5.39848000;2022-12-29T00:41:05;3.25;;;1.73;;
7829;SDS011;3960;51.86894000;5.39848000;2022-12-29T00:43:49;3.00;;;1.50;;
7829;SDS011;3960;51.86894000;5.39848000;2022-12-29T00:46:30;1.75;;;1.50;;
7829;SDS011;3960;51.86894000;5.39848000;2022-12-29T00:48:57;3.70;;;1.33;;
7829;SDS011;3960;51.86894000;5.39848000;2022-12-29T00:51:41;1.55;;;1.15;;
7829;SDS011;3960;51.86894000;5.39848000;2022-12-29T00:54:10;1.55;;;1.23;;
7829;SDS011;3960;51.86894000;5.39848000;2022-12-29T00:56:36;3.40;;;1.42;;
7829;SDS011;3960;51.86894000;5.39848000;2022-12-29T00:59:02;1.13;;;0.95;;
7829;SDS011;3960;51.86894000;5.39848000;2022-12-29T01:01:29;6.90;;;1.27;;
7829;SDS011;3960;51.86894000;5.39848000;2022-12-29T01:03:54;2.10;;;1.23;;
7829;SDS011;3960;51.86894000;5.39848000;2022-12-29T01:06:20;5.97;;;1.38;;
7829;SDS011;3960;51.86894000;5.39848000;2022-12-29T01:08:45;2.55;;;0.88;;
7829;SDS011;3960;51.86894000;5.39848000;2022-12-29T01:11:11;1.88;;;1.00;;
7829;SDS011;3960;51.86894000;5.39848000;2022-12-29T01:13:38;0.70;;;0.68;;
7829;SDS011;3960;51.86894000;5.39848000;2022-12-29T01:16:08;1.23;;;0.98;;
7829;SDS011;3960;51.86894000;5.39848000;2022-12-29T01:18:33;1.85;;;1.05;;
7829;SDS011;3960;51.86894000;5.39848000;2022-12-29T01:21:00;1.65;;;1.38;;
7829;SDS011;3960;51.86894000;5.39848000;2022-12-29T01:23:29;2.17;;;1.17;;
7829;SDS011;3960;51.86894000;5.39848000;2022-12-29T01:25:55;2.80;;;1.10;;
7829;SDS011;3960;51.86894000;5.39848000;2022-12-29T01:28:21;1.73;;;1.20;;
7829;SDS011;3960;51.86894000;5.39848000;2022-12-29T01:30:47;1.30;;;1.20;;
7829;SDS011;3960;51.86894000;5.39848000;2022-12-29T01:33:12;2.70;;;1.40;;
7829;SDS011;3960;51.86894000;5.39848000;2022-12-29T01:35:38;1.92;;;1.20;;
7829;SDS011;3960;51.86894000;5.39848000;2022-12-29T01:38:03;1.50;;;1.20;;
7829;SDS011;3960;51.86894000;5.39848000;2022-12-29T01:40:28;2.55;;;1.40;;
7829;SDS011;3960;51.86894000;5.39848000;2022-12-29T01:42:54;1.58;;;1.20;;
7829;SDS011;3960;51.86894000;5.39848000;2022-12-29T01:45:20;1.90;;;1.52;;
7829;SDS011;3960;51.86894000;5.39848000;2022-12-29T01:47:52;1.15;;;1.10;;
7829;SDS011;3960;51.86894000;5.39848000;2022-12-29T01:50:32;3.85;;;1.48;;
7829;SDS011;3960;51.86894000;5.39848000;2022-12-29T01:53:04;3.15;;;1.38;;
7829;SDS011;3960;51.86894000;5.39848000;2022-12-29T01:55:36;2.65;;;1.52;;
7829;SDS011;3960;51.86894000;5.39848000;2022-12-29T01:58:09;2.38;;;1.60;;
7829;SDS011;3960;51.86894000;5.39848000;2022-12-29T02:00:38;2.08;;;1.67;;
7829;SDS011;3960;51.86894000;5.39848000;2022-12-29T02:03:04;2.95;;;1.48;;
7829;SDS011;3960;51.86894000;5.39848000;2022-12-29T02:08:13;4.95;;;1.50;;
7829;SDS011;3960;51.86894000;5.39848000;2022-12-29T02:10:38;5.28;;;1.80;;
7829;SDS011;3960;51.86894000;5.39848000;2022-12-29T02:13:05;1.90;;;0.73;;
7829;SDS011;3960;51.86894000;5.39848000;2022-12-29T02:18:18;3.45;;;1.20;;
7829;SDS011;3960;51.86894000;5.39848000;2022-12-29T02:24:16;3.73;;;1.00;;
7829;SDS011;3960;51.86894000;5.39848000;2022-12-29T02:30:16;1.20;;;1.00;;
7829;SDS011;3960;51.86894000;5.39848000;2022-12-29T02:35:50;3.95;;;1.38;;
7829;SDS011;3960;51.86894000;5.39848000;2022-12-29T02:44:42;3.88;;;1.63;;
7829;SDS011;3960;51.86894000;5.39848000;2022-12-29T02:47:22;4.55;;;1.23;;
7829;SDS011;3960;51.86894000;5.39848000;2022-12-29T02:53:05;2.17;;;1.20;;
7829;SDS011;3960;51.86894000;5.39848000;2022-12-29T02:55:34;2.95;;;0.95;;
7829;SDS011;3960;51.86894000;5.39848000;2022-12-29T03:00:38;4.68;;;1.10;;
7829;SDS011;3960;51.86894000;5.39848000;2022-12-29T03:08:49;4.72;;;1.50;;
7829;SDS011;3960;51.86894000;5.39848000;2022-12-29T03:11:22;5.43;;;1.70;;
7829;SDS011;3960;51.86894000;5.39848000;2022-12-29T03:14:16;4.35;;;1.55;;
7829;SDS011;3960;51.86894000;5.39848000;2022-12-29T03:22:28;7.15;;;1.70;;
7829;SDS011;3960;51.86894000;5.39848000;2022-12-29T03:25:01;4.55;;;1.40;;
7829;SDS011;3960;51.86894000;5.39848000;2022-12-29T03:27:41;3.78;;;1.67;;
7829;SDS011;3960;51.86894000;5.39848000;2022-12-29T03:30:11;2.10;;;1.33;;
7829;SDS011;3960;51.86894000;5.39848000;2022-12-29T03:32:40;2.47;;;1.27;;
7829;SDS011;3960;51.86894000;5.39848000;2022-12-29T03:35:09;5.15;;;1.70;;
7829;SDS011;3960;51.86894000;5.39848000;2022-12-29T03:37:42;7.50;;;1.52;;
7829;SDS011;3960;51.86894000;5.39848000;2022-12-29T03:40:18;4.25;;;1.13;;
7829;SDS011;3960;51.86894000;5.39848000;2022-12-29T03:42:46;3.50;;;1.13;;
7829;SDS011;3960;51.86894000;5.39848000;2022-12-29T03:45:13;2.80;;;1.17;;
7829;SDS011;3960;51.86894000;5.39848000;2022-12-29T03:47:38;2.60;;;1.17;;
7829;SDS011;3960;51.86894000;5.39848000;2022-12-29T03:50:04;4.85;;;1.38;;
7829;SDS011;3960;51.86894000;5.39848000;2022-12-29T03:52:30;4.78;;;1.20;;
7829;SDS011;3960;51.86894000;5.39848000;2022-12-29T03:54:55;4.43;;;1.08;;
7829;SDS011;3960;51.86894000;5.39848000;2022-12-29T03:57:21;5.57;;;1.25;;
7829;SDS011;3960;51.86894000;5.39848000;2022-12-29T03:59:46;3.42;;;1.00;;
7829;SDS011;3960;51.86894000;5.39848000;2022-12-29T04:02:11;2.50;;;0.98;;
7829;SDS011;3960;51.86894000;5.39848000;2022-12-29T04:04:37;6.05;;;1.15;;
7829;SDS011;3960;51.86894000;5.39848000;2022-12-29T04:07:02;4.72;;;1.20;;
7829;SDS011;3960;51.86894000;5.39848000;2022-12-29T04:09:27;4.75;;;1.20;;
7829;SDS011;3960;51.86894000;5.39848000;2022-12-29T04:11:56;5.30;;;1.20;;
7829;SDS011;3960;51.86894000;5.39848000;2022-12-29T04:14:21;3.20;;;0.98;;
7829;SDS011;3960;51.86894000;5.39848000;2022-12-29T04:16:47;7.03;;;1.35;;
7829;SDS011;3960;51.86894000;5.39848000;2022-12-29T04:19:12;4.72;;;1.70;;
7829;SDS011;3960;51.86894000;5.39848000;2022-12-29T04:21:38;5.32;;;1.20;;
7829;SDS011;3960;51.86894000;5.39848000;2022-12-29T04:24:03;6.63;;;1.15;;
7829;SDS011;3960;51.86894000;5.39848000;2022-12-29T04:26:31;6.40;;;1.42;;
7829;SDS011;3960;51.86894000;5.39848000;2022-12-29T04:28:57;2.35;;;1.20;;
7829;SDS011;3960;51.86894000;5.39848000;2022-12-29T04:31:22;5.53;;;1.05;;
7829;SDS011;3960;51.86894000;5.39848000;2022-12-29T04:33:47;3.28;;;1.08;;
7829;SDS011;3960;51.86894000;5.39848000;2022-12-29T04:36:13;3.78;;;1.10;;
7829;SDS011;3960;51.86894000;5.39848000;2022-12-29T04:38:38;3.88;;;1.10;;
7829;SDS011;3960;51.86894000;5.39848000;2022-12-29T04:41:04;4.85;;;1.50;;
7829;SDS011;3960;51.86894000;5.39848000;2022-12-29T04:43:29;7.00;;;1.33;;
7829;SDS011;3960;51.86894000;5.39848000;2022-12-29T04:45:54;2.47;;;1.10;;
7829;SDS011;3960;51.86894000;5.39848000;2022-12-29T04:48:20;5.80;;;1.58;;
7829;SDS011;3960;51.86894000;5.39848000;2022-12-29T04:50:47;10.85;;;1.70;;
7829;SDS011;3960;51.86894000;5.39848000;2022-12-29T04:53:14;7.15;;;1.40;;
7829;SDS011;3960;51.86894000;5.39848000;2022-12-29T04:55:40;6.60;;;1.38;;
7829;SDS011;3960;51.86894000;5.39848000;2022-12-29T04:58:05;3.55;;;1.20;;
7829;SDS011;3960;51.86894000;5.39848000;2022-12-29T05:00:31;8.43;;;1.30;;
7829;SDS011;3960;51.86894000;5.39848000;2022-12-29T05:02:56;3.78;;;1.10;;
7829;SDS011;3960;51.86894000;5.39848000;2022-12-29T05:05:22;5.82;;;1.05;;
7829;SDS011;3960;51.86894000;5.39848000;2022-12-29T05:07:47;7.75;;;1.27;;
7829;SDS011;3960;51.86894000;5.39848000;2022-12-29T05:10:13;8.48;;;1.77;;
7829;SDS011;3960;51.86894000;5.39848000;2022-12-29T05:12:38;7.10;;;1.42;;
7829;SDS011;3960;51.86894000;5.39848000;2022-12-29T05:15:04;6.72;;;1.23;;
7829;SDS011;3960;51.86894000;5.39848000;2022-12-29T05:17:35;5.65;;;1.52;;
7829;SDS011;3960;51.86894000;5.39848000;2022-12-29T05:20:00;9.13;;;1.25;;
7829;SDS011;3960;51.86894000;5.39848000;2022-12-29T05:22:26;4.53;;;1.48;;
7829;SDS011;3960;51.86894000;5.39848000;2022-12-29T05:24:51;7.63;;;2.00;;
7829;SDS011;3960;51.86894000;5.39848000;2022-12-29T05:27:16;5.30;;;1.20;;
7829;SDS011;3960;51.86894000;5.39848000;2022-12-29T05:29:42;5.97;;;1.60;;
7829;SDS011;3960;51.86894000;5.39848000;2022-12-29T05:32:07;6.55;;;2.15;;
7829;SDS011;3960;51.86894000;5.39848000;2022-12-29T05:34:32;9.77;;;1.90;;
7829;SDS011;3960;51.86894000;5.39848000;2022-12-29T05:36:58;5.85;;;1.65;;
7829;SDS011;3960;51.86894000;5.39848000;2022-12-29T05:39:23;5.30;;;1.70;;
7829;SDS011;3960;51.86894000;5.39848000;2022-12-29T05:41:49;6.22;;;1.60;;
7829;SDS011;3960;51.86894000;5.39848000;2022-12-29T05:44:14;6.78;;;1.80;;
7829;SDS011;3960;51.86894000;5.39848000;2022-12-29T05:46:39;7.28;;;1.60;;
7829;SDS011;3960;51.86894000;5.39848000;2022-12-29T05:49:05;9.23;;;1.80;;
7829;SDS011;3960;51.86894000;5.39848000;2022-12-29T05:51:31;5.80;;;1.45;;
7829;SDS011;3960;51.86894000;5.39848000;2022-12-29T05:53:56;4.47;;;1.95;;
7829;SDS011;3960;51.86894000;5.39848000;2022-12-29T05:56:22;9.80;;;1.60;;
7829;SDS011;3960;51.86894000;5.39848000;2022-12-29T05:58:47;7.72;;;1.42;;
7829;SDS011;3960;51.86894000;5.39848000;2022-12-29T06:01:13;6.22;;;1.35;;
7829;SDS011;3960;51.86894000;5.39848000;2022-12-29T06:03:38;8.60;;;1.17;;
7829;SDS011;3960;51.86894000;5.39848000;2022-12-29T06:06:03;5.68;;;1.20;;
7829;SDS011;3960;51.86894000;5.39848000;2022-12-29T06:08:29;4.68;;;1.25;;
7829;SDS011;3960;51.86894000;5.39848000;2022-12-29T06:10:54;5.65;;;1.55;;
7829;SDS011;3960;51.86894000;5.39848000;2022-12-29T06:13:19;13.75;;;1.48;;
7829;SDS011;3960;51.86894000;5.39848000;2022-12-29T06:15:45;6.63;;;1.35;;
7829;SDS011;3960;51.86894000;5.39848000;2022-12-29T06:18:16;9.98;;;1.73;;
7829;SDS011;3960;51.86894000;5.39848000;2022-12-29T06:20:43;7.33;;;1.60;;
7829;SDS011;3960;51.86894000;5.39848000;2022-12-29T06:23:09;8.35;;;1.35;;
7829;SDS011;3960;51.86894000;5.39848000;2022-12-29T06:25:34;6.25;;;1.58;;
7829;SDS011;3960;51.86894000;5.39848000;2022-12-29T06:28:00;7.32;;;1.73;;
7829;SDS011;3960;51.86894000;5.39848000;2022-12-29T06:30:26;6.75;;;1.25;;
7829;SDS011;3960;51.86894000;5.39848000;2022-12-29T06:32:52;5.97;;;1.52;;
7829;SDS011;3960;51.86894000;5.39848000;2022-12-29T06:35:17;9.05;;;2.00;;
7829;SDS011;3960;51.86894000;5.39848000;2022-12-29T06:37:43;10.43;;;1.83;;
7829;SDS011;3960;51.86894000;5.39848000;2022-12-29T06:40:08;5.90;;;1.30;;
7829;SDS011;3960;51.86894000;5.39848000;2022-12-29T06:42:34;8.05;;;1.58;;
7829;SDS011;3960;51.86894000;5.39848000;2022-12-29T06:45:00;7.95;;;1.33;;
7829;SDS011;3960;51.86894000;5.39848000;2022-12-29T06:47:30;18.95;;;3.22;;
7829;SDS011;3960;51.86894000;5.39848000;2022-12-29T06:49:56;5.57;;;1.42;;
7829;SDS011;3960;51.86894000;5.39848000;2022-12-29T06:52:21;9.82;;;1.48;;
7829;SDS011;3960;51.86894000;5.39848000;2022-12-29T06:54:48;7.22;;;1.42;;
7829;SDS011;3960;51.86894000;5.39848000;2022-12-29T06:57:14;5.28;;;1.77;;
7829;SDS011;3960;51.86894000;5.39848000;2022-12-29T06:59:39;6.70;;;1.25;;
7829;SDS011;3960;51.86894000;5.39848000;2022-12-29T07:02:05;13.52;;;3.30;;
7829;SDS011;3960;51.86894000;5.39848000;2022-12-29T07:04:31;9.65;;;2.10;;
7829;SDS011;3960;51.86894000;5.39848000;2022-12-29T07:06:56;7.22;;;1.33;;
7829;SDS011;3960;51.86894000;5.39848000;2022-12-29T07:09:21;5.32;;;1.35;;
7829;SDS011;3960;51.86894000;5.39848000;2022-12-29T07:11:47;6.90;;;1.33;;
7829;SDS011;3960;51.86894000;5.39848000;2022-12-29T07:14:15;4.57;;;1.23;;
7829;SDS011;3960;51.86894000;5.39848000;2022-12-29T07:16:40;7.15;;;1.10;;
7829;SDS011;3960;51.86894000;5.39848000;2022-12-29T07:19:06;5.18;;;0.90;;
7829;SDS011;3960;51.86894000;5.39848000;2022-12-29T07:21:31;6.03;;;1.40;;
7829;SDS011;3960;51.86894000;5.39848000;2022-12-29T07:23:56;7.05;;;0.98;;
7829;SDS011;3960;51.86894000;5.39848000;2022-12-29T07:26:22;9.15;;;1.30;;
7829;SDS011;3960;51.86894000;5.39848000;2022-12-29T07:28:48;10.75;;;1.55;;
7829;SDS011;3960;51.86894000;5.39848000;2022-12-29T07:31:14;5.68;;;1.33;;
7829;SDS011;3960;51.86894000;5.39848000;2022-12-29T07:33:41;4.15;;;1.27;;
7829;SDS011;3960;51.86894000;5.39848000;2022-12-29T07:36:08;5.88;;;1.40;;
7829;SDS011;3960;51.86894000;5.39848000;2022-12-29T07:38:34;5.25;;;2.00;;
7829;SDS011;3960;51.86894000;5.39848000;2022-12-29T07:40:59;6.50;;;1.95;;
7829;SDS011;3960;51.86894000;5.39848000;2022-12-29T07:43:25;6.93;;;1.45;;
7829;SDS011;3960;51.86894000;5.39848000;2022-12-29T07:45:50;5.22;;;1.33;;
7829;SDS011;3960;51.86894000;5.39848000;2022-12-29T07:48:16;7.65;;;1.80;;
7829;SDS011;3960;51.86894000;5.39848000;2022-12-29T07:50:41;6.82;;;1.50;;
7829;SDS011;3960;51.86894000;5.39848000;2022-12-29T07:53:09;2.97;;;1.40;;
7829;SDS011;3960;51.86894000;5.39848000;2022-12-29T07:55:34;7.47;;;1.65;;
7829;SDS011;3960;51.86894000;5.39848000;2022-12-29T07:58:09;6.07;;;1.85;;
7829;SDS011;3960;51.86894000;5.39848000;2022-12-29T08:00:34;9.95;;;1.95;;
7829;SDS011;3960;51.86894000;5.39848000;2022-12-29T08:03:03;9.68;;;1.77;;
7829;SDS011;3960;51.86894000;5.39848000;2022-12-29T08:05:28;14.90;;;2.30;;
7829;SDS011;3960;51.86894000;5.39848000;2022-12-29T08:07:55;7.85;;;1.55;;
7829;SDS011;3960;51.86894000;5.39848000;2022-12-29T08:10:24;9.60;;;1.80;;
7829;SDS011;3960;51.86894000;5.39848000;2022-12-29T08:12:49;5.35;;;1.42;;
7829;SDS011;3960;51.86894000;5.39848000;2022-12-29T08:15:15;11.07;;;1.55;;
7829;SDS011;3960;51.86894000;5.39848000;2022-12-29T08:17:40;9.85;;;2.10;;
7829;SDS011;3960;51.86894000;5.39848000;2022-12-29T08:20:09;7.10;;;1.83;;
7829;SDS011;3960;51.86894000;5.39848000;2022-12-29T08:22:35;6.22;;;1.48;;
7829;SDS011;3960;51.86894000;5.39848000;2022-12-29T08:25:00;8.45;;;1.75;;
7829;SDS011;3960;51.86894000;5.39848000;2022-12-29T08:27:26;9.93;;;1.60;;
7829;SDS011;3960;51.86894000;5.39848000;2022-12-29T08:29:51;6.93;;;1.63;;
7829;SDS011;3960;51.86894000;5.39848000;2022-12-29T08:32:17;8.13;;;1.55;;
7829;SDS011;3960;51.86894000;5.39848000;2022-12-29T08:34:43;9.15;;;1.67;;
7829;SDS011;3960;51.86894000;5.39848000;2022-12-29T08:37:08;10.57;;;1.48;;
7829;SDS011;3960;51.86894000;5.39848000;2022-12-29T08:39:33;6.65;;;1.30;;
7829;SDS011;3960;51.86894000;5.39848000;2022-12-29T08:41:59;7.13;;;1.75;;
7829;SDS011;3960;51.86894000;5.39848000;2022-12-29T08:44:25;6.10;;;1.42;;
7829;SDS011;3960;51.86894000;5.39848000;2022-12-29T08:46:50;6.93;;;1.40;;
7829;SDS011;3960;51.86894000;5.39848000;2022-12-29T08:49:16;8.05;;;1.80;;
7829;SDS011;3960;51.86894000;5.39848000;2022-12-29T08:51:41;8.45;;;2.17;;
7829;SDS011;3960;51.86894000;5.39848000;2022-12-29T08:54:07;6.70;;;1.58;;
7829;SDS011;3960;51.86894000;5.39848000;2022-12-29T08:56:32;8.30;;;1.88;;
7829;SDS011;3960;51.86894000;5.39848000;2022-12-29T08:58:57;9.13;;;2.10;;
7829;SDS011;3960;51.86894000;5.39848000;2022-12-29T09:01:23;5.47;;;1.50;;
7829;SDS011;3960;51.86894000;5.39848000;2022-12-29T09:03:48;6.43;;;1.52;;
7829;SDS011;3960;51.86894000;5.39848000;2022-12-29T09:06:14;7.50;;;2.80;;
7829;SDS011;3960;51.86894000;5.39848000;2022-12-29T09:08:40;10.75;;;1.77;;
7829;SDS011;3960;51.86894000;5.39848000;2022-12-29T09:11:10;11.63;;;2.17;;
7829;SDS011;3960;51.86894000;5.39848000;2022-12-29T09:13:38;7.32;;;1.42;;
7829;SDS011;3960;51.86894000;5.39848000;2022-12-29T09:16:04;8.13;;;2.33;;
7829;SDS011;3960;51.86894000;5.39848000;2022-12-29T09:18:29;5.82;;;1.50;;
7829;SDS011;3960;51.86894000;5.39848000;2022-12-29T09:20:58;7.93;;;1.50;;
7829;SDS011;3960;51.86894000;5.39848000;2022-12-29T09:23:31;9.90;;;1.70;;
7829;SDS011;3960;51.86894000;5.39848000;2022-12-29T09:25:57;6.40;;;1.55;;
7829;SDS011;3960;51.86894000;5.39848000;2022-12-29T09:28:23;4.75;;;1.20;;
7829;SDS011;3960;51.86894000;5.39848000;2022-12-29T09:30:49;3.33;;;1.25;;
7829;SDS011;3960;51.86894000;5.39848000;2022-12-29T09:33:15;8.15;;;1.70;;
7829;SDS011;3960;51.86894000;5.39848000;2022-12-29T09:35:41;10.40;;;2.15;;
7829;SDS011;3960;51.86894000;5.39848000;2022-12-29T09:38:10;10.23;;;1.85;;
7829;SDS011;3960;51.86894000;5.39848000;2022-12-29T09:40:40;10.38;;;1.70;;
7829;SDS011;3960;51.86894000;5.39848000;2022-12-29T09:46:29;8.07;;;1.90;;
7829;SDS011;3960;51.86894000;5.39848000;2022-12-29T09:51:50;6.85;;;1.45;;
7829;SDS011;3960;51.86894000;5.39848000;2022-12-29T09:54:30;7.55;;;1.50;;
7829;SDS011;3960;51.86894000;5.39848000;2022-12-29T09:57:04;11.55;;;2.75;;
7829;SDS011;3960;51.86894000;5.39848000;2022-12-29T09:59:41;5.43;;;1.55;;
7829;SDS011;3960;51.86894000;5.39848000;2022-12-29T10:02:23;13.05;;;2.00;;
7829;SDS011;3960;51.86894000;5.39848000;2022-12-29T10:04:51;8.82;;;2.03;;
7829;SDS011;3960;51.86894000;5.39848000;2022-12-29T10:07:29;9.90;;;1.77;;
7829;SDS011;3960;51.86894000;5.39848000;2022-12-29T10:10:03;8.10;;;1.77;;
7829;SDS011;3960;51.86894000;5.39848000;2022-12-29T10:21:53;11.43;;;2.03;;
7829;SDS011;3960;51.86894000;5.39848000;2022-12-29T10:24:30;6.53;;;2.15;;
7829;SDS011;3960;51.86894000;5.39848000;2022-12-29T10:26:58;12.48;;;2.20;;
7829;SDS011;3960;51.86894000;5.39848000;2022-12-29T10:29:32;5.25;;;1.52;;
7829;SDS011;3960;51.86894000;5.39848000;2022-12-29T10:32:02;8.75;;;1.70;;
7829;SDS011;3960;51.86894000;5.39848000;2022-12-29T10:34:36;9.05;;;2.30;;
7829;SDS011;3960;51.86894000;5.39848000;2022-12-29T10:42:39;5.80;;;1.77;;
7829;SDS011;3960;51.86894000;5.39848000;2022-12-29T10:45:11;7.95;;;3.10;;
7829;SDS011;3960;51.86894000;5.39848000;2022-12-29T10:47:51;13.52;;;2.40;;
7829;SDS011;3960;51.86894000;5.39848000;2022-12-29T10:50:17;6.78;;;2.50;;
7829;SDS011;3960;51.86894000;5.39848000;2022-12-29T10:52:46;7.55;;;2.20;;
7829;SDS011;3960;51.86894000;5.39848000;2022-12-29T10:55:14;14.20;;;2.65;;
7829;SDS011;3960;51.86894000;5.39848000;2022-12-29T10:57:46;9.15;;;3.70;;
7829;SDS011;3960;51.86894000;5.39848000;2022-12-29T11:00:15;15.52;;;3.53;;
7829;SDS011;3960;51.86894000;5.39848000;2022-12-29T11:08:18;13.27;;;3.72;;
7829;SDS011;3960;51.86894000;5.39848000;2022-12-29T11:10:46;11.10;;;2.92;;
7829;SDS011;3960;51.86894000;5.39848000;2022-12-29T11:13:34;13.15;;;3.15;;
7829;SDS011;3960;51.86894000;5.39848000;2022-12-29T11:16:11;12.70;;;3.42;;
7829;SDS011;3960;51.86894000;5.39848000;2022-12-29T11:18:37;13.73;;;3.55;;
7829;SDS011;3960;51.86894000;5.39848000;2022-12-29T11:24:18;12.02;;;3.50;;
7829;SDS011;3960;51.86894000;5.39848000;2022-12-29T11:26:44;15.52;;;3.50;;
7829;SDS011;3960;51.86894000;5.39848000;2022-12-29T11:29:17;14.60;;;3.10;;
7829;SDS011;3960;51.86894000;5.39848000;2022-12-29T11:31:52;9.18;;;3.05;;
7829;SDS011;3960;51.86894000;5.39848000;2022-12-29T11:34:33;14.85;;;4.38;;
7829;SDS011;3960;51.86894000;5.39848000;2022-12-29T11:37:03;13.23;;;3.40;;
7829;SDS011;3960;51.86894000;5.39848000;2022-12-29T11:39:50;16.52;;;3.72;;
7829;SDS011;3960;51.86894000;5.39848000;2022-12-29T11:42:22;12.77;;;3.42;;
7829;SDS011;3960;51.86894000;5.39848000;2022-12-29T11:44:57;10.60;;;2.63;;
7829;SDS011;3960;51.86894000;5.39848000;2022-12-29T11:47:33;15.38;;;3.03;;
7829;SDS011;3960;51.86894000;5.39848000;2022-12-29T11:50:03;10.63;;;2.72;;
7829;SDS011;3960;51.86894000;5.39848000;2022-12-29T11:52:36;17.20;;;3.88;;
7829;SDS011;3960;51.86894000;5.39848000;2022-12-29T11:55:05;9.13;;;2.90;;
7829;SDS011;3960;51.86894000;5.39848000;2022-12-29T11:57:42;11.43;;;2.70;;
7829;SDS011;3960;51.86894000;5.39848000;2022-12-29T12:00:19;15.98;;;3.15;;
7829;SDS011;3960;51.86894000;5.39848000;2022-12-29T12:10:44;13.02;;;3.13;;
7829;SDS011;3960;51.86894000;5.39848000;2022-12-29T12:13:20;15.27;;;4.97;;
7829;SDS011;3960;51.86894000;5.39848000;2022-12-29T12:15:52;12.85;;;3.47;;
7829;SDS011;3960;51.86894000;5.39848000;2022-12-29T12:18:39;13.30;;;3.35;;
7829;SDS011;3960;51.86894000;5.39848000;2022-12-29T12:29:22;10.70;;;2.80;;
7829;SDS011;3960;51.86894000;5.39848000;2022-12-29T12:32:20;18.85;;;3.38;;
7829;SDS011;3960;51.86894000;5.39848000;2022-12-29T12:34:55;10.70;;;3.58;;
7829;SDS011;3960;51.86894000;5.39848000;2022-12-29T12:37:29;9.77;;;2.60;;
7829;SDS011;3960;51.86894000;5.39848000;2022-12-29T12:40:30;11.32;;;3.00;;
7829;SDS011;3960;51.86894000;5.39848000;2022-12-29T12:43:10;14.00;;;3.10;;
7829;SDS011;3960;51.86894000;5.39848000;2022-12-29T12:45:55;11.02;;;2.95;;
7829;SDS011;3960;51.86894000;5.39848000;2022-12-29T12:56:43;10.75;;;3.03;;
7829;SDS011;3960;51.86894000;5.39848000;2022-12-29T12:59:32;12.25;;;3.10;;
7829;SDS011;3960;51.86894000;5.39848000;2022-12-29T13:07:55;8.95;;;2.72;;
7829;SDS011;3960;51.86894000;5.39848000;2022-12-29T13:10:42;11.15;;;2.63;;
7829;SDS011;3960;51.86894000;5.39848000;2022-12-29T13:16:27;11.88;;;3.20;;
7829;SDS011;3960;51.86894000;5.39848000;2022-12-29T13:19:08;12.73;;;2.70;;
7829;SDS011;3960;51.86894000;5.39848000;2022-12-29T13:24:18;12.77;;;2.78;;
7829;SDS011;3960;51.86894000;5.39848000;2022-12-29T13:29:47;15.80;;;3.17;;
7829;SDS011;3960;51.86894000;5.39848000;2022-12-29T13:32:20;9.23;;;2.33;;
7829;SDS011;3960;51.86894000;5.39848000;2022-12-29T13:35:27;11.82;;;2.58;;
7829;SDS011;3960;51.86894000;5.39848000;2022-12-29T13:38:07;7.65;;;2.38;;
7829;SDS011;3960;51.86894000;5.39848000;2022-12-29T13:40:39;9.10;;;2.97;;
7829;SDS011;3960;51.86894000;5.39848000;2022-12-29T13:43:11;5.40;;;1.45;;
7829;SDS011;3960;51.86894000;5.39848000;2022-12-29T13:45:37;6.97;;;1.42;;
7829;SDS011;3960;51.86894000;5.39848000;2022-12-29T13:48:17;7.57;;;1.50;;
7829;SDS011;3960;51.86894000;5.39848000;2022-12-29T13:50:51;3.83;;;1.27;;
7829;SDS011;3960;51.86894000;5.39848000;2022-12-29T13:58:50;5.07;;;1.83;;
7829;SDS011;3960;51.86894000;5.39848000;2022-12-29T14:03:59;1.77;;;1.02;;
7829;SDS011;3960;51.86894000;5.39848000;2022-12-29T14:06:28;3.17;;;0.95;;
7829;SDS011;3960;51.86894000;5.39848000;2022-12-29T14:09:06;2.72;;;1.40;;
7829;SDS011;3960;51.86894000;5.39848000;2022-12-29T14:12:29;4.72;;;1.55;;
7829;SDS011;3960;51.86894000;5.39848000;2022-12-29T14:15:04;7.72;;;1.95;;
7829;SDS011;3960;51.86894000;5.39848000;2022-12-29T14:17:31;4.45;;;1.52;;
7829;SDS011;3960;51.86894000;5.39848000;2022-12-29T14:19:57;6.68;;;2.20;;
7829;SDS011;3960;51.86894000;5.39848000;2022-12-29T14:22:27;10.05;;;2.25;;
7829;SDS011;3960;51.86894000;5.39848000;2022-12-29T14:24:53;7.55;;;2.13;;
7829;SDS011;3960;51.86894000;5.39848000;2022-12-29T14:29:45;8.85;;;2.20;;
7829;SDS011;3960;51.86894000;5.39848000;2022-12-29T14:34:49;4.93;;;2.00;;
7829;SDS011;3960;51.86894000;5.39848000;2022-12-29T14:37:31;8.50;;;2.10;;
7829;SDS011;3960;51.86894000;5.39848000;2022-12-29T14:42:54;9.95;;;2.10;;
7829;SDS011;3960;51.86894000;5.39848000;2022-12-29T14:45:26;7.05;;;1.98;;
7829;SDS011;3960;51.86894000;5.39848000;2022-12-29T14:47:54;8.45;;;2.65;;
7829;SDS011;3960;51.86894000;5.39848000;2022-12-29T14:57:44;11.50;;;2.17;;
7829;SDS011;3960;51.86894000;5.39848000;2022-12-29T15:00:15;6.50;;;2.55;;
7829;SDS011;3960;51.86894000;5.39848000;2022-12-29T15:02:49;7.07;;;2.30;;
7829;SDS011;3960;51.86894000;5.39848000;2022-12-29T15:05:26;12.77;;;2.83;;
7829;SDS011;3960;51.86894000;5.39848000;2022-12-29T15:07:55;9.38;;;2.38;;
7829;SDS011;3960;51.86894000;5.39848000;2022-12-29T15:10:22;6.40;;;2.63;;
7829;SDS011;3960;51.86894000;5.39848000;2022-12-29T15:12:50;8.15;;;2.28;;
7829;SDS011;3960;51.86894000;5.39848000;2022-12-29T15:15:19;11.07;;;2.42;;
7829;SDS011;3960;51.86894000;5.39848000;2022-12-29T15:17:47;11.85;;;2.97;;
7829;SDS011;3960;51.86894000;5.39848000;2022-12-29T15:20:23;7.05;;;2.30;;
7829;SDS011;3960;51.86894000;5.39848000;2022-12-29T15:22:55;9.27;;;2.72;;
7829;SDS011;3960;51.86894000;5.39848000;2022-12-29T15:25:22;13.93;;;3.60;;
7829;SDS011;3960;51.86894000;5.39848000;2022-12-29T15:27:59;12.20;;;2.60;;
7829;SDS011;3960;51.86894000;5.39848000;2022-12-29T15:30:27;9.48;;;2.80;;
7829;SDS011;3960;51.86894000;5.39848000;2022-12-29T15:32:52;9.27;;;2.30;;
7829;SDS011;3960;51.86894000;5.39848000;2022-12-29T15:35:22;7.32;;;2.60;;